createdAt,value
2024-01-26T00:00:34.857Z,55.57
2024-01-26T00:03:01.405Z,55.97
2024-01-26T00:05:27.968Z,55.88
2024-01-26T00:07:54.575Z,56.45
2024-01-26T00:10:21.409Z,56.60
2024-01-26T00:12:48.089Z,56.83
2024-01-26T00:15:15.628Z,57.25
2024-01-26T00:17:42.133Z,57.42
2024-01-26T00:20:10.634Z,57.70
2024-01-26T00:22:37.186Z,57.85
2024-01-26T00:25:04.004Z,57.74
2024-01-26T00:27:30.864Z,57.86
2024-01-26T00:29:57.375Z,58.09
2024-01-26T00:32:23.863Z,58.46
2024-01-26T00:34:50.595Z,58.54
2024-01-26T00:37:17.165Z,58.77
2024-01-26T00:39:43.823Z,58.70
2024-01-26T00:42:10.407Z,58.61
2024-01-26T00:44:38.317Z,58.67
2024-01-26T00:47:05.172Z,58.86
2024-01-26T00:49:38.838Z,58.78
2024-01-26T00:52:12.659Z,58.73
2024-01-26T00:54:39.414Z,58.58
2024-01-26T00:57:06.243Z,58.53
2024-01-26T00:59:32.983Z,57.95
2024-01-26T01:01:59.805Z,57.62
2024-01-26T01:04:27.079Z,57.41
2024-01-26T01:06:53.903Z,57.40
2024-01-26T01:09:20.783Z,57.79
2024-01-26T01:11:47.343Z,57.83
2024-01-26T01:14:13.941Z,57.45
2024-01-26T01:16:41.046Z,57.57
2024-01-26T01:19:08.694Z,58.16
2024-01-26T01:21:35.759Z,58.15
2024-01-26T01:24:02.424Z,57.78
2024-01-26T01:26:29.097Z,58.43
2024-01-26T01:28:55.704Z,58.41
2024-01-26T01:31:22.229Z,58.74
2024-01-26T01:33:49.102Z,58.47
2024-01-26T01:36:15.716Z,58.54
2024-01-26T01:38:43.893Z,58.16
2024-01-26T01:41:10.409Z,58.09
2024-01-26T01:43:36.921Z,58.18
2024-01-26T01:46:03.838Z,57.85
2024-01-26T01:48:30.695Z,57.52
2024-01-26T01:50:57.690Z,57.85
2024-01-26T01:53:25.731Z,57.51
2024-01-26T01:55:52.716Z,57.93
2024-01-26T01:58:21.215Z,57.73
2024-01-26T02:00:47.841Z,57.66
2024-01-26T02:03:14.686Z,57.45
2024-01-26T02:05:41.256Z,57.50
2024-01-26T02:08:07.811Z,57.58
2024-01-26T02:10:34.334Z,57.38
2024-01-26T02:13:02.486Z,57.46
2024-01-26T02:15:28.969Z,57.74
2024-01-26T02:17:55.493Z,57.46
2024-01-26T02:20:30.564Z,57.47
2024-01-26T02:23:04.763Z,57.64
2024-01-26T02:25:31.287Z,57.78
2024-01-26T02:27:57.812Z,57.71
2024-01-26T02:30:24.324Z,57.86
2024-01-26T02:32:50.930Z,57.81
2024-01-26T02:35:17.650Z,57.55
2024-01-26T02:37:44.165Z,57.29
2024-01-26T02:40:11.777Z,57.18
2024-01-26T02:42:38.380Z,56.87
2024-01-26T02:45:05.315Z,56.69
2024-01-26T02:47:31.970Z,56.65
2024-01-26T02:49:58.554Z,56.99
2024-01-26T02:52:25.054Z,56.49
2024-01-26T02:54:53.027Z,56.88
2024-01-26T02:57:19.586Z,57.44
2024-01-26T02:59:46.260Z,57.88
2024-01-26T03:02:12.919Z,58.02
2024-01-26T03:04:39.365Z,57.98
2024-01-26T03:07:05.984Z,58.05
2024-01-26T03:09:32.933Z,57.90
2024-01-26T03:11:59.500Z,57.66
2024-01-26T03:14:25.962Z,57.51
2024-01-26T03:16:52.505Z,57.24
2024-01-26T03:19:19.228Z,57.18
2024-01-26T03:21:46.442Z,57.14
2024-01-26T03:24:14.072Z,57.23
2024-01-26T03:26:40.899Z,57.26
2024-01-26T03:29:08.138Z,57.85
2024-01-26T03:31:35.121Z,58.75
2024-01-26T03:34:02.206Z,58.33
2024-01-26T03:36:29.116Z,58.82
2024-01-26T03:38:55.710Z,59.09
2024-01-26T03:41:22.253Z,59.31
2024-01-26T03:43:52.849Z,59.38
2024-01-26T03:46:20.575Z,59.66
2024-01-26T03:48:47.417Z,59.54
2024-01-26T03:51:14.711Z,59.37
2024-01-26T03:53:41.235Z,59.18
2024-01-26T03:56:07.888Z,59.40
2024-01-26T03:58:34.517Z,59.13
2024-01-26T04:01:01.534Z,58.77
2024-01-26T04:03:28.258Z,58.61
2024-01-26T04:05:54.820Z,58.79
2024-01-26T04:08:21.382Z,58.47
2024-01-26T04:10:47.954Z,58.52
2024-01-26T04:13:14.441Z,58.47
2024-01-26T04:15:41.032Z,58.59
2024-01-26T04:18:07.705Z,59.00
2024-01-26T04:20:34.600Z,59.08
2024-01-26T04:23:01.132Z,59.23
2024-01-26T04:25:27.930Z,59.75
2024-01-26T04:27:54.492Z,59.93
2024-01-26T04:30:21.639Z,59.88
2024-01-26T04:32:48.376Z,60.30
2024-01-26T04:35:15.504Z,59.99
2024-01-26T04:37:42.136Z,59.76
2024-01-26T04:40:08.940Z,59.45
2024-01-26T04:42:35.941Z,59.45
2024-01-26T04:45:02.586Z,59.07
2024-01-26T04:47:29.674Z,58.93
2024-01-26T04:49:56.242Z,59.25
2024-01-26T04:52:22.775Z,58.96
2024-01-26T04:54:49.594Z,59.54
2024-01-26T04:57:16.301Z,59.65
2024-01-26T04:59:43.222Z,59.91
2024-01-26T05:02:09.908Z,60.24
2024-01-26T05:04:36.524Z,61.01
2024-01-26T05:07:03.356Z,61.09
2024-01-26T05:09:30.017Z,61.68
2024-01-26T05:11:56.996Z,62.03
2024-01-26T05:14:23.750Z,62.44
2024-01-26T05:16:50.245Z,62.91
2024-01-26T05:19:16.893Z,62.84
2024-01-26T05:21:43.471Z,63.47
2024-01-26T05:24:10.157Z,63.27
2024-01-26T05:26:39.418Z,63.34
2024-01-26T05:29:08.172Z,63.34
2024-01-26T05:31:36.426Z,63.14
2024-01-26T05:34:03.370Z,62.91
2024-01-26T05:36:30.000Z,62.76
2024-01-26T05:38:56.516Z,62.13
2024-01-26T05:41:23.101Z,61.94
2024-01-26T05:43:50.221Z,62.07
2024-01-26T05:46:16.785Z,61.46
2024-01-26T05:48:47.252Z,61.90
2024-01-26T05:51:14.717Z,61.85
2024-01-26T05:53:41.384Z,62.08
2024-01-26T05:56:07.982Z,62.59
2024-01-26T05:58:34.573Z,62.67
2024-01-26T06:01:01.334Z,62.68
2024-01-26T06:03:28.914Z,62.66
2024-01-26T06:05:55.937Z,63.33
2024-01-26T06:08:22.647Z,63.70
2024-01-26T06:10:49.606Z,64.42
2024-01-26T06:13:16.441Z,64.51
2024-01-26T06:15:42.957Z,64.75
2024-01-26T06:18:09.685Z,64.59
2024-01-26T06:20:36.523Z,64.51
2024-01-26T06:23:03.265Z,64.85
2024-01-26T06:25:29.798Z,64.61
2024-01-26T06:27:56.399Z,64.69
2024-01-26T06:30:22.950Z,64.82
2024-01-26T06:32:49.670Z,64.86
2024-01-26T06:35:16.332Z,64.95
2024-01-26T06:37:42.835Z,64.64
2024-01-26T06:40:13.396Z,64.16
2024-01-26T06:42:43.253Z,64.32
2024-01-26T06:45:14.089Z,64.52
2024-01-26T06:47:40.926Z,64.17
2024-01-26T06:50:10.753Z,64.45
2024-01-26T06:52:39.088Z,64.16
2024-01-26T06:55:05.819Z,64.35
2024-01-26T06:57:32.981Z,64.39
2024-01-26T06:59:59.504Z,64.53
2024-01-26T07:02:26.041Z,64.09
2024-01-26T07:04:52.541Z,64.17
2024-01-26T07:07:19.078Z,64.04
2024-01-26T07:09:45.619Z,64.39
2024-01-26T07:12:12.322Z,64.39
2024-01-26T07:14:39.015Z,64.38
2024-01-26T07:17:05.604Z,64.65
2024-01-26T07:19:32.166Z,64.33
2024-01-26T07:21:58.902Z,64.40
2024-01-26T07:24:25.498Z,64.80
2024-01-26T07:26:52.205Z,64.71
2024-01-26T07:29:18.805Z,64.58
2024-01-26T07:31:47.318Z,64.54
2024-01-26T07:34:14.591Z,64.59
2024-01-26T07:36:41.355Z,64.70
2024-01-26T07:39:08.571Z,65.12
2024-01-26T07:41:35.384Z,64.85
2024-01-26T07:44:01.848Z,64.88
2024-01-26T07:46:28.366Z,64.98
2024-01-26T07:48:55.398Z,64.60
2024-01-26T07:51:22.106Z,64.28
2024-01-26T07:53:48.667Z,64.13
2024-01-26T07:56:15.316Z,63.81
2024-01-26T07:58:42.058Z,64.00
2024-01-26T08:01:10.799Z,64.60
2024-01-26T08:03:37.655Z,64.47
2024-01-26T08:06:04.736Z,64.58
2024-01-26T08:08:31.584Z,64.24
2024-01-26T08:10:58.999Z,64.40
2024-01-26T08:13:25.977Z,64.70
2024-01-26T08:15:53.042Z,65.30
2024-01-26T08:18:19.970Z,65.28
2024-01-26T08:20:46.582Z,65.84
2024-01-26T08:23:13.355Z,65.48
2024-01-26T08:25:41.694Z,65.11
2024-01-26T08:28:08.234Z,64.99
2024-01-26T08:30:35.579Z,64.05
2024-01-26T08:33:02.209Z,63.74
2024-01-26T08:35:28.959Z,63.26
2024-01-26T08:37:55.574Z,63.13
2024-01-26T08:40:22.138Z,63.31
2024-01-26T08:42:48.718Z,62.98
2024-01-26T08:45:15.336Z,62.50
2024-01-26T08:47:41.929Z,62.44
2024-01-26T08:50:08.982Z,62.06
2024-01-26T08:52:35.871Z,62.10
2024-01-26T08:55:02.397Z,62.26
2024-01-26T08:57:28.910Z,62.23
2024-01-26T08:59:55.664Z,62.01
2024-01-26T09:02:22.204Z,61.63
2024-01-26T09:04:48.730Z,61.50
2024-01-26T09:07:18.863Z,61.15
2024-01-26T09:09:45.493Z,61.26
2024-01-26T09:12:12.076Z,60.86
2024-01-26T09:14:38.637Z,61.05
2024-01-26T09:17:05.159Z,60.18
2024-01-26T09:19:31.827Z,60.50
2024-01-26T09:21:58.419Z,60.18
2024-01-26T09:24:25.057Z,60.68
2024-01-26T09:26:54.033Z,60.21
2024-01-26T09:29:20.681Z,59.59
2024-01-26T09:31:47.200Z,59.48
2024-01-26T09:34:15.055Z,60.14
2024-01-26T09:36:41.722Z,59.75
2024-01-26T09:39:08.516Z,58.97
2024-01-26T09:41:35.749Z,58.51
2024-01-26T09:44:04.199Z,58.87
2024-01-26T09:46:32.278Z,57.04
2024-01-26T09:48:59.635Z,56.35
2024-01-26T09:51:30.299Z,55.85
2024-01-26T09:54:01.114Z,55.24
2024-01-26T09:56:28.482Z,55.49
2024-01-26T09:58:55.001Z,55.58
2024-01-26T10:01:22.971Z,54.52
2024-01-26T10:03:53.602Z,54.30
2024-01-26T10:06:21.735Z,53.92
2024-01-26T10:08:48.618Z,53.81
2024-01-26T10:11:15.246Z,54.04
2024-01-26T10:13:42.024Z,52.43
2024-01-26T10:16:10.541Z,52.13
2024-01-26T10:18:48.222Z,52.41
2024-01-26T10:21:17.641Z,51.48
2024-01-26T10:23:44.941Z,51.86
2024-01-26T10:26:11.989Z,51.38
2024-01-26T10:28:39.355Z,51.02
2024-01-26T10:31:06.585Z,50.75
2024-01-26T10:33:33.464Z,50.08
2024-01-26T10:36:02.234Z,50.07
2024-01-26T10:38:32.609Z,49.79
2024-01-26T10:41:06.617Z,48.36
2024-01-26T10:43:33.930Z,49.12
2024-01-26T10:46:03.162Z,48.36
2024-01-26T10:48:30.955Z,48.65
2024-01-26T10:50:58.907Z,48.57
2024-01-26T10:53:27.478Z,49.13
2024-01-26T10:55:54.197Z,49.40
2024-01-26T10:58:20.934Z,51.04
2024-01-26T11:00:48.333Z,51.17
2024-01-26T11:03:16.083Z,51.42
2024-01-26T11:05:49.270Z,50.91
2024-01-26T11:08:23.002Z,51.11
2024-01-26T11:10:51.687Z,51.73
2024-01-26T11:13:18.326Z,51.73
2024-01-26T11:15:48.060Z,51.07
2024-01-26T11:18:28.384Z,50.99
2024-01-26T11:20:55.345Z,51.03
2024-01-26T11:23:22.874Z,51.07
2024-01-26T11:25:55.336Z,51.00
2024-01-26T11:28:26.641Z,49.85
2024-01-26T11:30:54.962Z,49.59
2024-01-26T11:33:25.485Z,49.47
2024-01-26T11:36:05.313Z,49.17
2024-01-26T11:38:33.481Z,49.25
2024-01-26T11:41:00.180Z,49.71
2024-01-26T11:43:27.566Z,49.24
2024-01-26T11:45:57.106Z,48.42
2024-01-26T11:48:24.087Z,48.64
2024-01-26T11:50:50.946Z,48.29
2024-01-26T11:53:19.186Z,49.12
2024-01-26T11:55:46.570Z,49.15
2024-01-26T11:58:16.455Z,49.04
2024-01-26T12:00:45.182Z,48.85
2024-01-26T12:03:15.569Z,48.83
2024-01-26T12:05:42.373Z,48.37
2024-01-26T12:08:10.520Z,48.55
2024-01-26T12:10:38.315Z,48.87
2024-01-26T12:13:06.805Z,49.27
2024-01-26T12:15:40.247Z,48.28
2024-01-26T12:18:12.544Z,48.42
2024-01-26T12:20:40.665Z,49.50
2024-01-26T12:23:16.361Z,48.13
2024-01-26T12:25:43.027Z,48.41
2024-01-26T12:28:09.643Z,48.94
2024-01-26T12:30:36.288Z,48.52
2024-01-26T12:33:09.239Z,48.31
2024-01-26T12:35:36.782Z,48.21
2024-01-26T12:38:03.627Z,49.16
2024-01-26T12:40:30.163Z,48.24
2024-01-26T12:42:56.682Z,48.00
2024-01-26T12:45:23.387Z,47.95
2024-01-26T12:47:50.191Z,47.50
2024-01-26T12:50:17.194Z,46.54
2024-01-26T12:52:44.056Z,46.58
2024-01-26T12:55:10.742Z,46.95
2024-01-26T12:57:37.277Z,46.63
2024-01-26T13:00:04.382Z,46.58
2024-01-26T13:02:31.058Z,46.65
2024-01-26T13:04:58.922Z,46.69
2024-01-26T13:07:25.611Z,47.09
2024-01-26T13:09:52.173Z,46.56
2024-01-26T13:12:19.954Z,46.31
2024-01-26T13:14:48.093Z,45.64
2024-01-26T13:17:14.854Z,45.51
2024-01-26T13:19:41.559Z,45.44
2024-01-26T13:22:08.247Z,45.63
2024-01-26T13:24:37.538Z,46.33
2024-01-26T13:27:13.339Z,46.31
2024-01-26T13:29:43.757Z,46.35
2024-01-26T13:32:10.651Z,46.75
2024-01-26T13:34:38.492Z,46.34
2024-01-26T13:37:05.205Z,46.33
2024-01-26T13:39:31.813Z,46.67
2024-01-26T13:41:58.860Z,46.44
2024-01-26T13:44:25.566Z,46.08
2024-01-26T13:46:52.638Z,45.80
2024-01-26T13:49:19.382Z,45.30
2024-01-26T13:51:46.646Z,45.94
2024-01-26T13:54:15.341Z,45.89
2024-01-26T13:56:42.672Z,45.42
2024-01-26T13:59:09.324Z,45.22
2024-01-26T14:01:36.731Z,45.49
2024-01-26T14:04:03.523Z,45.93
2024-01-26T14:06:32.850Z,45.87
2024-01-26T14:09:01.037Z,45.27
2024-01-26T14:11:27.628Z,46.01
2024-01-26T14:13:54.151Z,46.00
2024-01-26T14:16:20.688Z,46.28
2024-01-26T14:18:47.365Z,46.22
2024-01-26T14:21:14.028Z,46.34
2024-01-26T14:23:40.634Z,46.52
2024-01-26T14:26:07.254Z,46.79
2024-01-26T14:28:34.521Z,46.62
2024-01-26T14:31:01.185Z,47.66
2024-01-26T14:33:27.947Z,48.60
2024-01-26T14:35:54.684Z,48.76
2024-01-26T14:38:22.607Z,48.64
2024-01-26T14:40:49.187Z,49.17
2024-01-26T14:43:15.638Z,49.74
2024-01-26T14:45:42.496Z,49.82
2024-01-26T14:48:09.923Z,49.93
2024-01-26T14:50:37.312Z,49.32
2024-01-26T14:53:04.487Z,49.54
2024-01-26T14:55:33.518Z,49.11
2024-01-26T14:58:01.774Z,49.70
2024-01-26T15:00:29.462Z,49.68
2024-01-26T15:02:56.295Z,49.58
2024-01-26T15:05:26.790Z,49.56
2024-01-26T15:07:55.263Z,49.80
2024-01-26T15:10:22.892Z,49.96
2024-01-26T15:12:49.654Z,50.06
2024-01-26T15:15:18.221Z,49.91
2024-01-26T15:17:47.669Z,50.18
2024-01-26T15:20:15.247Z,50.55
2024-01-26T15:22:42.039Z,50.49
2024-01-26T15:25:09.014Z,50.16
2024-01-26T15:27:35.608Z,50.16
2024-01-26T15:30:02.292Z,50.41
2024-01-26T15:32:30.954Z,50.41
2024-01-26T15:34:57.498Z,50.41
2024-01-26T15:37:23.990Z,50.41
2024-01-26T15:39:50.534Z,49.97
2024-01-26T15:42:17.713Z,49.87
2024-01-26T15:44:44.804Z,50.22
2024-01-26T15:47:11.635Z,50.34
2024-01-26T15:49:39.640Z,49.71
2024-01-26T15:52:07.011Z,49.60
2024-01-26T15:54:33.485Z,49.53
2024-01-26T15:57:00.466Z,49.76
2024-01-26T15:59:27.118Z,49.63
2024-01-26T16:01:54.040Z,50.23
2024-01-26T16:04:20.589Z,49.81
2024-01-26T16:06:50.422Z,49.57
2024-01-26T16:09:17.794Z,49.44
2024-01-26T16:11:44.865Z,50.08
2024-01-26T16:14:12.786Z,50.14
2024-01-26T16:16:40.966Z,50.09
2024-01-26T16:19:08.026Z,50.23
2024-01-26T16:21:34.628Z,50.03
2024-01-26T16:24:01.162Z,50.15
2024-01-26T16:26:27.664Z,49.57
2024-01-26T16:28:54.255Z,49.67
2024-01-26T16:31:21.047Z,49.77
2024-01-26T16:33:47.665Z,49.80
2024-01-26T16:36:14.343Z,49.75
2024-01-26T16:38:47.363Z,50.13
2024-01-26T16:41:18.004Z,49.83
2024-01-26T16:43:44.558Z,49.87
2024-01-26T16:46:11.546Z,49.95
2024-01-26T16:48:38.369Z,49.79
2024-01-26T16:51:05.761Z,49.59
2024-01-26T16:53:32.341Z,50.53
2024-01-26T16:55:58.847Z,49.75
2024-01-26T16:58:25.503Z,49.83
2024-01-26T17:00:54.221Z,49.52
2024-01-26T17:03:20.911Z,49.89
2024-01-26T17:05:47.888Z,50.13
2024-01-26T17:08:14.445Z,49.83
2024-01-26T17:10:40.999Z,49.74
2024-01-26T17:13:09.353Z,50.15
2024-01-26T17:15:35.911Z,49.94
2024-01-26T17:18:02.901Z,49.90
2024-01-26T17:20:29.554Z,50.12
2024-01-26T17:22:56.039Z,50.68
2024-01-26T17:25:22.554Z,50.33
2024-01-26T17:27:49.018Z,50.42
2024-01-26T17:30:15.623Z,50.71
2024-01-26T17:32:42.298Z,50.55
2024-01-26T17:35:08.992Z,50.69
2024-01-26T17:37:35.564Z,50.63
2024-01-26T17:40:03.687Z,50.49
2024-01-26T17:42:32.015Z,50.76
2024-01-26T17:44:59.087Z,50.87
2024-01-26T17:47:25.843Z,51.35
2024-01-26T17:49:52.572Z,51.41
2024-01-26T17:52:19.558Z,51.48
2024-01-26T17:54:46.188Z,51.94
2024-01-26T17:57:12.852Z,52.58
2024-01-26T17:59:43.825Z,53.02
2024-01-26T18:02:14.030Z,52.58
2024-01-26T18:04:40.624Z,53.58
2024-01-26T18:07:07.190Z,53.09
2024-01-26T18:09:33.775Z,53.11
2024-01-26T18:12:00.408Z,53.68
2024-01-26T18:14:26.950Z,54.36
2024-01-26T18:16:53.458Z,55.28
2024-01-26T18:19:20.410Z,56.16
2024-01-26T18:21:47.023Z,56.92
2024-01-26T18:24:13.839Z,57.22
2024-01-26T18:26:41.641Z,58.58
2024-01-26T18:29:08.722Z,59.60
2024-01-26T18:31:35.226Z,60.05
2024-01-26T18:34:05.011Z,60.43
2024-01-26T18:36:31.686Z,60.96
2024-01-26T18:38:58.253Z,61.84
2024-01-26T18:41:31.295Z,62.29
2024-01-26T18:43:58.722Z,62.52
2024-01-26T18:46:26.830Z,62.54
2024-01-26T18:48:54.442Z,62.53
2024-01-26T18:51:21.585Z,62.96
2024-01-26T18:53:48.349Z,62.60
2024-01-26T18:56:14.975Z,63.02
2024-01-26T18:58:42.758Z,62.82
2024-01-26T19:01:11.657Z,62.92
2024-01-26T19:03:40.107Z,62.58
2024-01-26T19:06:07.096Z,62.72
2024-01-26T19:08:33.669Z,62.69
2024-01-26T19:11:00.296Z,63.03
2024-01-26T19:13:26.849Z,63.17
2024-01-26T19:15:53.603Z,63.10
2024-01-26T19:18:21.003Z,63.81
2024-01-26T19:20:47.918Z,63.75
2024-01-26T19:23:14.586Z,63.75
2024-01-26T19:25:41.445Z,64.19
2024-01-26T19:28:08.234Z,63.77
2024-01-26T19:30:37.324Z,63.67
2024-01-26T19:33:07.217Z,63.81
2024-01-26T19:35:34.183Z,63.67
2024-01-26T19:38:01.162Z,63.53
2024-01-26T19:40:27.715Z,63.65
2024-01-26T19:42:54.252Z,64.05
2024-01-26T19:45:23.746Z,63.96
2024-01-26T19:47:50.606Z,64.67
2024-01-26T19:50:17.964Z,64.42
2024-01-26T19:52:45.266Z,64.49
2024-01-26T19:55:12.277Z,64.62
2024-01-26T19:57:41.099Z,64.25
2024-01-26T20:00:10.220Z,64.40
2024-01-26T20:02:37.613Z,64.24
2024-01-26T20:05:08.636Z,64.53
2024-01-26T20:07:35.892Z,65.01
2024-01-26T20:10:09.714Z,65.22
2024-01-26T20:12:36.855Z,64.79
2024-01-26T20:15:04.892Z,64.77
2024-01-26T20:17:31.664Z,64.97
2024-01-26T20:19:58.526Z,64.40
2024-01-26T20:22:25.088Z,64.77
2024-01-26T20:24:51.857Z,64.80
2024-01-26T20:27:18.632Z,65.13
2024-01-26T20:29:45.319Z,65.05
2024-01-26T20:32:11.869Z,64.94
2024-01-26T20:34:38.485Z,64.82
2024-01-26T20:37:05.137Z,64.94
2024-01-26T20:39:31.857Z,64.68
2024-01-26T20:42:00.988Z,65.05
2024-01-26T20:44:29.684Z,65.00
2024-01-26T20:46:56.432Z,65.23
2024-01-26T20:49:23.133Z,65.35
2024-01-26T20:51:51.544Z,65.41
2024-01-26T20:54:21.866Z,65.67
2024-01-26T20:56:48.541Z,65.81
2024-01-26T20:59:15.138Z,67.02
2024-01-26T21:01:41.600Z,68.01
2024-01-26T21:04:08.141Z,68.96
2024-01-26T21:06:35.018Z,70.85
2024-01-26T21:09:01.669Z,71.85
2024-01-26T21:11:30.089Z,72.51
2024-01-26T21:13:56.578Z,72.47
2024-01-26T21:16:24.669Z,72.69
2024-01-26T21:18:51.579Z,72.91
2024-01-26T21:21:18.389Z,73.01
2024-01-26T21:23:45.863Z,72.57
2024-01-26T21:26:12.481Z,72.28
2024-01-26T21:28:39.063Z,72.09
2024-01-26T21:31:06.660Z,72.00
2024-01-26T21:33:33.547Z,71.66
2024-01-26T21:36:02.396Z,71.11
2024-01-26T21:38:29.683Z,70.41
2024-01-26T21:40:56.454Z,70.16
2024-01-26T21:43:23.154Z,69.95
2024-01-26T21:45:52.845Z,69.79
2024-01-26T21:48:24.236Z,69.69
2024-01-26T21:50:51.470Z,69.23
2024-01-26T21:53:18.655Z,69.14
2024-01-26T21:55:45.359Z,69.23
2024-01-26T21:58:11.958Z,69.15
2024-01-26T22:00:38.653Z,69.22
2024-01-26T22:03:05.854Z,69.13
2024-01-26T22:05:34.365Z,69.04
2024-01-26T22:08:02.482Z,69.47
2024-01-26T22:10:29.902Z,69.74
2024-01-26T22:12:56.352Z,70.11
2024-01-26T22:15:22.928Z,70.54
2024-01-26T22:17:49.707Z,71.03
2024-01-26T22:20:16.922Z,71.44
2024-01-26T22:22:43.497Z,71.60
2024-01-26T22:25:10.129Z,71.96
2024-01-26T22:27:36.677Z,72.31
2024-01-26T22:30:03.616Z,72.52
2024-01-26T22:32:30.152Z,72.72
2024-01-26T22:34:56.740Z,73.09
2024-01-26T22:37:23.301Z,73.84
2024-01-26T22:39:49.900Z,74.13
2024-01-26T22:42:16.505Z,74.17
2024-01-26T22:44:43.205Z,75.05
2024-01-26T22:47:09.725Z,75.98
2024-01-26T22:49:36.344Z,76.47
2024-01-26T22:52:02.939Z,76.97
2024-01-26T22:54:29.580Z,78.00
2024-01-26T22:56:56.195Z,78.64
2024-01-26T22:59:22.730Z,79.53
2024-01-26T23:01:51.652Z,79.80
2024-01-26T23:04:18.439Z,79.57
2024-01-26T23:06:45.799Z,79.95
2024-01-26T23:09:13.314Z,79.94
2024-01-26T23:11:40.225Z,79.97
2024-01-26T23:14:09.829Z,79.60
2024-01-26T23:16:36.387Z,78.64
2024-01-26T23:19:03.886Z,77.46
2024-01-26T23:21:30.771Z,77.02
2024-01-26T23:23:57.709Z,76.20
2024-01-26T23:26:25.384Z,76.01
2024-01-26T23:28:52.248Z,75.46
2024-01-26T23:31:18.930Z,75.24
2024-01-26T23:33:45.685Z,75.41
2024-01-26T23:36:12.373Z,75.14
2024-01-26T23:38:38.983Z,74.42
2024-01-26T23:41:09.493Z,74.01
2024-01-26T23:43:38.393Z,74.02
2024-01-26T23:46:06.395Z,73.16
2024-01-26T23:48:33.172Z,73.06
2024-01-26T23:51:02.734Z,72.59
2024-01-26T23:53:29.532Z,71.11
2024-01-26T23:55:56.086Z,70.92
2024-01-26T23:58:22.625Z,70.74
